sensor_id;sensor_type;location;lat;lon;timestamp;P1;durP1;ratioP1;P2;durP2;ratioP2
41693;SDS011;27377;50.666;9.150;2023-06-22T00:01:52;8.20;;;6.23;;
41693;SDS011;27377;50.666;9.150;2023-06-22T00:04:18;7.53;;;5.90;;
41693;SDS011;27377;50.666;9.150;2023-06-22T00:06:43;8.03;;;6.13;;
41693;SDS011;27377;50.666;9.150;2023-06-22T00:09:09;7.03;;;5.70;;
41693;SDS011;27377;50.666;9.150;2023-06-22T00:11:35;7.25;;;5.90;;
41693;SDS011;27377;50.666;9.150;2023-06-22T00:14:02;6.87;;;5.73;;
41693;SDS011;27377;50.666;9.150;2023-06-22T00:16:28;7.70;;;5.93;;
41693;SDS011;27377;50.666;9.150;2023-06-22T00:18:53;8.43;;;6.00;;
41693;SDS011;27377;50.666;9.150;2023-06-22T00:21:28;8.67;;;6.20;;
41693;SDS011;27377;50.666;9.150;2023-06-22T00:23:57;8.00;;;6.15;;
41693;SDS011;27377;50.666;9.150;2023-06-22T00:26:30;10.50;;;6.50;;
41693;SDS011;27377;50.666;9.150;2023-06-22T00:28:55;8.60;;;6.47;;
41693;SDS011;27377;50.666;9.150;2023-06-22T00:31:21;7.37;;;6.07;;
41693;SDS011;27377;50.666;9.150;2023-06-22T00:33:46;7.27;;;6.10;;
41693;SDS011;27377;50.666;9.150;2023-06-22T00:36:15;10.27;;;6.45;;
41693;SDS011;27377;50.666;9.150;2023-06-22T00:38:42;7.60;;;5.77;;
41693;SDS011;27377;50.666;9.150;2023-06-22T00:41:11;9.25;;;5.72;;
41693;SDS011;27377;50.666;9.150;2023-06-22T00:43:39;8.80;;;6.25;;
41693;SDS011;27377;50.666;9.150;2023-06-22T00:46:09;8.40;;;6.07;;
41693;SDS011;27377;50.666;9.150;2023-06-22T00:48:35;7.80;;;6.10;;
41693;SDS011;27377;50.666;9.150;2023-06-22T00:51:02;7.80;;;6.32;;
41693;SDS011;27377;50.666;9.150;2023-06-22T00:53:27;8.57;;;6.35;;
41693;SDS011;27377;50.666;9.150;2023-06-22T00:55:53;9.43;;;6.38;;
41693;SDS011;27377;50.666;9.150;2023-06-22T00:58:19;8.27;;;6.25;;
41693;SDS011;27377;50.666;9.150;2023-06-22T01:00:47;8.07;;;6.45;;
41693;SDS011;27377;50.666;9.150;2023-06-22T01:03:16;7.60;;;6.25;;
41693;SDS011;27377;50.666;9.150;2023-06-22T01:05:42;8.82;;;6.53;;
41693;SDS011;27377;50.666;9.150;2023-06-22T01:11:14;10.45;;;6.82;;
41693;SDS011;27377;50.666;9.150;2023-06-22T01:13:52;8.52;;;6.22;;
41693;SDS011;27377;50.666;9.150;2023-06-22T01:16:31;8.52;;;6.50;;
41693;SDS011;27377;50.666;9.150;2023-06-22T01:22:10;9.27;;;6.70;;
41693;SDS011;27377;50.666;9.150;2023-06-22T01:27:35;8.93;;;6.40;;
41693;SDS011;27377;50.666;9.150;2023-06-22T01:30:12;9.75;;;7.10;;
41693;SDS011;27377;50.666;9.150;2023-06-22T01:32:40;9.25;;;6.60;;
41693;SDS011;27377;50.666;9.150;2023-06-22T01:35:07;8.27;;;6.32;;
41693;SDS011;27377;50.666;9.150;2023-06-22T01:37:34;8.10;;;6.70;;
41693;SDS011;27377;50.666;9.150;2023-06-22T01:40:02;8.38;;;6.43;;
41693;SDS011;27377;50.666;9.150;2023-06-22T01:42:30;9.35;;;6.95;;
41693;SDS011;27377;50.666;9.150;2023-06-22T01:44:56;10.38;;;6.80;;
41693;SDS011;27377;50.666;9.150;2023-06-22T01:47:23;8.70;;;6.88;;
41693;SDS011;27377;50.666;9.150;2023-06-22T01:49:49;9.20;;;6.60;;
41693;SDS011;27377;50.666;9.150;2023-06-22T01:52:18;10.27;;;6.93;;
41693;SDS011;27377;50.666;9.150;2023-06-22T01:54:46;10.40;;;6.87;;
41693;SDS011;27377;50.666;9.150;2023-06-22T01:57:12;11.45;;;6.75;;
41693;SDS011;27377;50.666;9.150;2023-06-22T01:59:39;9.60;;;6.75;;
41693;SDS011;27377;50.666;9.150;2023-06-22T02:02:18;10.50;;;7.57;;
41693;SDS011;27377;50.666;9.150;2023-06-22T02:04:57;9.27;;;6.93;;
41693;SDS011;27377;50.666;9.150;2023-06-22T02:07:36;10.10;;;7.55;;
41693;SDS011;27377;50.666;9.150;2023-06-22T02:10:09;9.57;;;7.40;;
41693;SDS011;27377;50.666;9.150;2023-06-22T02:12:38;9.90;;;7.30;;
41693;SDS011;27377;50.666;9.150;2023-06-22T02:15:06;8.70;;;7.00;;
41693;SDS011;27377;50.666;9.150;2023-06-22T02:17:33;8.70;;;7.25;;
41693;SDS011;27377;50.666;9.150;2023-06-22T02:20:00;8.85;;;7.18;;
41693;SDS011;27377;50.666;9.150;2023-06-22T02:22:33;10.43;;;7.30;;
41693;SDS011;27377;50.666;9.150;2023-06-22T02:25:01;9.10;;;7.38;;
41693;SDS011;27377;50.666;9.150;2023-06-22T02:27:26;10.80;;;7.60;;
41693;SDS011;27377;50.666;9.150;2023-06-22T02:29:52;9.88;;;7.50;;
41693;SDS011;27377;50.666;9.150;2023-06-22T02:32:20;10.80;;;7.63;;
41693;SDS011;27377;50.666;9.150;2023-06-22T02:34:46;9.80;;;7.70;;
41693;SDS011;27377;50.666;9.150;2023-06-22T02:37:15;9.23;;;7.00;;
41693;SDS011;27377;50.666;9.150;2023-06-22T02:39:41;10.83;;;7.50;;
41693;SDS011;27377;50.666;9.150;2023-06-22T02:42:07;10.65;;;7.65;;
41693;SDS011;27377;50.666;9.150;2023-06-22T02:44:38;9.35;;;7.40;;
41693;SDS011;27377;50.666;9.150;2023-06-22T02:47:03;9.80;;;8.07;;
41693;SDS011;27377;50.666;9.150;2023-06-22T02:49:29;9.77;;;7.90;;
41693;SDS011;27377;50.666;9.150;2023-06-22T02:51:55;9.57;;;7.70;;
41693;SDS011;27377;50.666;9.150;2023-06-22T02:54:20;10.43;;;8.27;;
41693;SDS011;27377;50.666;9.150;2023-06-22T02:56:46;10.00;;;8.00;;
41693;SDS011;27377;50.666;9.150;2023-06-22T02:59:13;9.90;;;7.93;;
41693;SDS011;27377;50.666;9.150;2023-06-22T03:01:38;9.87;;;8.37;;
41693;SDS011;27377;50.666;9.150;2023-06-22T03:04:07;10.57;;;8.38;;
41693;SDS011;27377;50.666;9.150;2023-06-22T03:06:33;11.15;;;8.75;;
41693;SDS011;27377;50.666;9.150;2023-06-22T03:09:01;11.50;;;8.82;;
41693;SDS011;27377;50.666;9.150;2023-06-22T03:11:29;10.07;;;8.48;;
41693;SDS011;27377;50.666;9.150;2023-06-22T03:13:58;8.93;;;8.03;;
41693;SDS011;27377;50.666;9.150;2023-06-22T03:16:24;10.00;;;8.32;;
41693;SDS011;27377;50.666;9.150;2023-06-22T03:18:50;10.70;;;8.93;;
41693;SDS011;27377;50.666;9.150;2023-06-22T03:21:16;9.88;;;8.30;;
41693;SDS011;27377;50.666;9.150;2023-06-22T03:23:42;10.37;;;8.57;;
41693;SDS011;27377;50.666;9.150;2023-06-22T03:26:08;11.70;;;9.05;;
41693;SDS011;27377;50.666;9.150;2023-06-22T03:28:34;10.85;;;8.45;;
41693;SDS011;27377;50.666;9.150;2023-06-22T03:31:00;10.55;;;8.77;;
41693;SDS011;27377;50.666;9.150;2023-06-22T03:33:25;9.70;;;8.17;;
41693;SDS011;27377;50.666;9.150;2023-06-22T03:35:51;11.03;;;8.70;;
41693;SDS011;27377;50.666;9.150;2023-06-22T03:38:17;10.87;;;8.07;;
41693;SDS011;27377;50.666;9.150;2023-06-22T03:40:43;9.67;;;8.57;;
41693;SDS011;27377;50.666;9.150;2023-06-22T03:43:08;11.17;;;8.73;;
41693;SDS011;27377;50.666;9.150;2023-06-22T03:45:34;11.23;;;8.80;;
41693;SDS011;27377;50.666;9.150;2023-06-22T03:48:00;10.17;;;8.60;;
41693;SDS011;27377;50.666;9.150;2023-06-22T03:50:26;11.15;;;9.13;;
41693;SDS011;27377;50.666;9.150;2023-06-22T03:52:52;12.00;;;8.90;;
41693;SDS011;27377;50.666;9.150;2023-06-22T03:55:19;9.77;;;8.73;;
41693;SDS011;27377;50.666;9.150;2023-06-22T03:57:45;11.43;;;8.82;;
41693;SDS011;27377;50.666;9.150;2023-06-22T04:00:11;9.37;;;8.37;;
41693;SDS011;27377;50.666;9.150;2023-06-22T04:02:37;10.03;;;8.50;;
41693;SDS011;27377;50.666;9.150;2023-06-22T04:05:02;9.43;;;8.43;;
41693;SDS011;27377;50.666;9.150;2023-06-22T04:07:28;10.97;;;8.93;;
41693;SDS011;27377;50.666;9.150;2023-06-22T04:09:53;12.43;;;9.07;;
41693;SDS011;27377;50.666;9.150;2023-06-22T04:12:19;11.80;;;8.73;;
41693;SDS011;27377;50.666;9.150;2023-06-22T04:14:44;10.75;;;8.52;;
41693;SDS011;27377;50.666;9.150;2023-06-22T04:17:10;10.68;;;8.70;;
41693;SDS011;27377;50.666;9.150;2023-06-22T04:19:40;9.80;;;8.60;;
41693;SDS011;27377;50.666;9.150;2023-06-22T04:22:05;11.50;;;8.70;;
41693;SDS011;27377;50.666;9.150;2023-06-22T04:24:35;10.15;;;8.15;;
41693;SDS011;27377;50.666;9.150;2023-06-22T04:27:00;10.13;;;8.30;;
41693;SDS011;27377;50.666;9.150;2023-06-22T04:29:29;11.52;;;8.20;;
41693;SDS011;27377;50.666;9.150;2023-06-22T04:31:55;11.32;;;8.52;;
41693;SDS011;27377;50.666;9.150;2023-06-22T04:34:28;11.27;;;8.60;;
41693;SDS011;27377;50.666;9.150;2023-06-22T04:36:54;10.52;;;8.93;;
41693;SDS011;27377;50.666;9.150;2023-06-22T04:39:19;11.02;;;8.82;;
41693;SDS011;27377;50.666;9.150;2023-06-22T04:41:49;11.52;;;8.88;;
41693;SDS011;27377;50.666;9.150;2023-06-22T04:44:16;10.65;;;8.60;;
41693;SDS011;27377;50.666;9.150;2023-06-22T04:46:53;11.03;;;9.23;;
41693;SDS011;27377;50.666;9.150;2023-06-22T04:49:25;12.32;;;9.20;;
41693;SDS011;27377;50.666;9.150;2023-06-22T04:51:58;10.30;;;9.10;;
41693;SDS011;27377;50.666;9.150;2023-06-22T04:54:24;11.10;;;9.43;;
41693;SDS011;27377;50.666;9.150;2023-06-22T04:56:51;12.20;;;9.70;;
41693;SDS011;27377;50.666;9.150;2023-06-22T04:59:23;12.50;;;9.70;;
41693;SDS011;27377;50.666;9.150;2023-06-22T05:02:00;13.37;;;10.07;;
41693;SDS011;27377;50.666;9.150;2023-06-22T05:04:30;11.98;;;10.25;;
41693;SDS011;27377;50.666;9.150;2023-06-22T05:06:56;11.55;;;9.68;;
41693;SDS011;27377;50.666;9.150;2023-06-22T05:09:22;12.20;;;9.85;;
41693;SDS011;27377;50.666;9.150;2023-06-22T05:11:51;13.83;;;10.60;;
41693;SDS011;27377;50.666;9.150;2023-06-22T05:14:17;12.03;;;9.93;;
41693;SDS011;27377;50.666;9.150;2023-06-22T05:16:43;12.40;;;10.40;;
41693;SDS011;27377;50.666;9.150;2023-06-22T05:19:12;12.93;;;10.57;;
41693;SDS011;27377;50.666;9.150;2023-06-22T05:21:37;13.55;;;10.57;;
41693;SDS011;27377;50.666;9.150;2023-06-22T05:24:04;12.27;;;10.50;;
41693;SDS011;27377;50.666;9.150;2023-06-22T05:26:30;12.80;;;10.50;;
41693;SDS011;27377;50.666;9.150;2023-06-22T05:29:00;14.55;;;10.45;;
41693;SDS011;27377;50.666;9.150;2023-06-22T05:31:27;13.32;;;10.40;;
41693;SDS011;27377;50.666;9.150;2023-06-22T05:33:53;12.68;;;10.13;;
41693;SDS011;27377;50.666;9.150;2023-06-22T05:36:24;13.25;;;9.95;;
41693;SDS011;27377;50.666;9.150;2023-06-22T05:38:51;12.60;;;9.93;;
41693;SDS011;27377;50.666;9.150;2023-06-22T05:41:17;12.02;;;9.88;;
41693;SDS011;27377;50.666;9.150;2023-06-22T05:43:43;12.57;;;10.53;;
41693;SDS011;27377;50.666;9.150;2023-06-22T05:46:12;13.52;;;9.48;;
41693;SDS011;27377;50.666;9.150;2023-06-22T05:48:41;12.67;;;10.27;;
41693;SDS011;27377;50.666;9.150;2023-06-22T05:51:06;14.83;;;10.23;;
41693;SDS011;27377;50.666;9.150;2023-06-22T05:53:32;12.27;;;10.00;;
41693;SDS011;27377;50.666;9.150;2023-06-22T05:55:57;13.67;;;10.90;;
41693;SDS011;27377;50.666;9.150;2023-06-22T05:58:23;13.23;;;10.40;;
41693;SDS011;27377;50.666;9.150;2023-06-22T06:00:48;14.10;;;11.10;;
41693;SDS011;27377;50.666;9.150;2023-06-22T06:03:17;12.18;;;10.20;;
41693;SDS011;27377;50.666;9.150;2023-06-22T06:05:43;15.30;;;11.03;;
41693;SDS011;27377;50.666;9.150;2023-06-22T06:08:10;13.52;;;11.23;;
41693;SDS011;27377;50.666;9.150;2023-06-22T06:10:42;12.30;;;10.98;;
41693;SDS011;27377;50.666;9.150;2023-06-22T06:13:07;13.40;;;11.00;;
41693;SDS011;27377;50.666;9.150;2023-06-22T06:15:33;14.20;;;11.23;;
41693;SDS011;27377;50.666;9.150;2023-06-22T06:17:59;13.45;;;11.10;;
41693;SDS011;27377;50.666;9.150;2023-06-22T06:20:28;12.45;;;10.38;;
41693;SDS011;27377;50.666;9.150;2023-06-22T06:22:54;14.02;;;10.27;;
41693;SDS011;27377;50.666;9.150;2023-06-22T06:25:23;12.90;;;10.30;;
41693;SDS011;27377;50.666;9.150;2023-06-22T06:27:51;12.00;;;10.00;;
41693;SDS011;27377;50.666;9.150;2023-06-22T06:30:20;12.52;;;10.32;;
41693;SDS011;27377;50.666;9.150;2023-06-22T06:32:47;12.70;;;9.90;;
41693;SDS011;27377;50.666;9.150;2023-06-22T06:35:13;12.55;;;9.80;;
41693;SDS011;27377;50.666;9.150;2023-06-22T06:37:43;11.68;;;9.75;;
41693;SDS011;27377;50.666;9.150;2023-06-22T06:40:16;11.60;;;9.95;;
41693;SDS011;27377;50.666;9.150;2023-06-22T06:42:49;11.33;;;9.70;;
41693;SDS011;27377;50.666;9.150;2023-06-22T06:45:19;14.20;;;9.40;;
41693;SDS011;27377;50.666;9.150;2023-06-22T06:47:51;13.02;;;9.73;;
41693;SDS011;27377;50.666;9.150;2023-06-22T06:50:38;15.00;;;9.93;;
41693;SDS011;27377;50.666;9.150;2023-06-22T06:53:03;13.57;;;10.10;;
41693;SDS011;27377;50.666;9.150;2023-06-22T06:55:35;11.25;;;9.82;;
41693;SDS011;27377;50.666;9.150;2023-06-22T06:58:01;11.18;;;9.10;;
41693;SDS011;27377;50.666;9.150;2023-06-22T07:00:33;12.35;;;9.38;;
41693;SDS011;27377;50.666;9.150;2023-06-22T07:02:58;11.07;;;9.32;;
41693;SDS011;27377;50.666;9.150;2023-06-22T07:05:24;13.32;;;9.70;;
41693;SDS011;27377;50.666;9.150;2023-06-22T07:07:50;12.95;;;9.90;;
41693;SDS011;27377;50.666;9.150;2023-06-22T07:10:15;12.38;;;9.30;;
41693;SDS011;27377;50.666;9.150;2023-06-22T07:12:41;11.63;;;9.18;;
41693;SDS011;27377;50.666;9.150;2023-06-22T07:15:08;12.98;;;9.10;;
41693;SDS011;27377;50.666;9.150;2023-06-22T07:17:37;10.85;;;8.85;;
41693;SDS011;27377;50.666;9.150;2023-06-22T07:20:07;12.05;;;9.25;;
41693;SDS011;27377;50.666;9.150;2023-06-22T07:22:40;14.75;;;9.50;;
41693;SDS011;27377;50.666;9.150;2023-06-22T07:25:07;10.83;;;9.07;;
41693;SDS011;27377;50.666;9.150;2023-06-22T07:27:38;11.57;;;9.35;;
41693;SDS011;27377;50.666;9.150;2023-06-22T07:30:08;11.05;;;9.07;;
41693;SDS011;27377;50.666;9.150;2023-06-22T07:32:34;11.52;;;8.40;;
41693;SDS011;27377;50.666;9.150;2023-06-22T07:35:00;11.85;;;8.63;;
41693;SDS011;27377;50.666;9.150;2023-06-22T07:37:27;12.07;;;8.40;;
41693;SDS011;27377;50.666;9.150;2023-06-22T07:39:53;11.63;;;8.82;;
41693;SDS011;27377;50.666;9.150;2023-06-22T07:42:23;11.23;;;8.77;;
41693;SDS011;27377;50.666;9.150;2023-06-22T07:44:49;10.50;;;8.50;;
41693;SDS011;27377;50.666;9.150;2023-06-22T07:47:16;10.05;;;8.20;;
41693;SDS011;27377;50.666;9.150;2023-06-22T07:49:44;10.63;;;8.60;;
41693;SDS011;27377;50.666;9.150;2023-06-22T07:52:10;12.37;;;8.73;;
41693;SDS011;27377;50.666;9.150;2023-06-22T07:54:36;11.13;;;9.23;;
41693;SDS011;27377;50.666;9.150;2023-06-22T07:57:01;11.37;;;8.93;;
41693;SDS011;27377;50.666;9.150;2023-06-22T07:59:27;12.90;;;8.90;;
41693;SDS011;27377;50.666;9.150;2023-06-22T08:01:53;10.73;;;8.67;;
41693;SDS011;27377;50.666;9.150;2023-06-22T08:04:19;10.23;;;8.40;;
41693;SDS011;27377;50.666;9.150;2023-06-22T08:06:45;10.40;;;8.50;;
41693;SDS011;27377;50.666;9.150;2023-06-22T08:09:11;10.73;;;8.53;;
41693;SDS011;27377;50.666;9.150;2023-06-22T08:11:37;11.00;;;8.50;;
41693;SDS011;27377;50.666;9.150;2023-06-22T08:14:02;10.67;;;8.23;;
41693;SDS011;27377;50.666;9.150;2023-06-22T08:16:28;11.90;;;8.20;;
41693;SDS011;27377;50.666;9.150;2023-06-22T08:18:54;11.13;;;8.53;;
41693;SDS011;27377;50.666;9.150;2023-06-22T08:21:19;11.27;;;8.43;;
41693;SDS011;27377;50.666;9.150;2023-06-22T08:23:45;11.70;;;8.00;;
41693;SDS011;27377;50.666;9.150;2023-06-22T08:26:10;12.30;;;8.50;;
41693;SDS011;27377;50.666;9.150;2023-06-22T08:28:36;11.27;;;8.10;;
41693;SDS011;27377;50.666;9.150;2023-06-22T08:31:02;11.30;;;8.10;;
41693;SDS011;27377;50.666;9.150;2023-06-22T08:33:28;9.38;;;8.10;;
41693;SDS011;27377;50.666;9.150;2023-06-22T08:35:55;9.98;;;8.40;;
41693;SDS011;27377;50.666;9.150;2023-06-22T08:38:21;13.15;;;8.30;;
41693;SDS011;27377;50.666;9.150;2023-06-22T08:40:46;10.57;;;8.52;;
41693;SDS011;27377;50.666;9.150;2023-06-22T08:43:12;9.85;;;8.00;;
41693;SDS011;27377;50.666;9.150;2023-06-22T08:45:38;9.47;;;7.83;;
41693;SDS011;27377;50.666;9.150;2023-06-22T08:48:03;9.27;;;8.07;;
41693;SDS011;27377;50.666;9.150;2023-06-22T08:50:29;11.40;;;8.03;;
41693;SDS011;27377;50.666;9.150;2023-06-22T08:52:54;10.30;;;8.20;;
41693;SDS011;27377;50.666;9.150;2023-06-22T08:55:20;10.27;;;8.27;;
41693;SDS011;27377;50.666;9.150;2023-06-22T08:57:45;11.17;;;7.73;;
41693;SDS011;27377;50.666;9.150;2023-06-22T09:00:11;11.45;;;8.13;;
41693;SDS011;27377;50.666;9.150;2023-06-22T09:02:45;13.30;;;8.20;;
41693;SDS011;27377;50.666;9.150;2023-06-22T09:05:11;10.07;;;7.90;;
41693;SDS011;27377;50.666;9.150;2023-06-22T09:07:37;10.73;;;8.13;;
41693;SDS011;27377;50.666;9.150;2023-06-22T09:10:03;10.80;;;7.67;;
41693;SDS011;27377;50.666;9.150;2023-06-22T09:12:32;9.97;;;7.83;;
41693;SDS011;27377;50.666;9.150;2023-06-22T09:14:58;11.57;;;8.30;;
41693;SDS011;27377;50.666;9.150;2023-06-22T09:17:28;10.05;;;7.82;;
41693;SDS011;27377;50.666;9.150;2023-06-22T09:19:54;9.90;;;7.80;;
41693;SDS011;27377;50.666;9.150;2023-06-22T09:22:19;10.40;;;8.03;;
41693;SDS011;27377;50.666;9.150;2023-06-22T09:24:45;11.13;;;8.00;;
41693;SDS011;27377;50.666;9.150;2023-06-22T09:27:10;10.20;;;7.63;;
41693;SDS011;27377;50.666;9.150;2023-06-22T09:29:36;10.27;;;7.72;;
41693;SDS011;27377;50.666;9.150;2023-06-22T09:32:01;9.40;;;7.43;;
41693;SDS011;27377;50.666;9.150;2023-06-22T09:34:27;8.35;;;6.90;;
41693;SDS011;27377;50.666;9.150;2023-06-22T09:36:52;9.33;;;7.30;;
41693;SDS011;27377;50.666;9.150;2023-06-22T09:39:18;9.50;;;7.10;;
41693;SDS011;27377;50.666;9.150;2023-06-22T09:41:44;9.53;;;7.33;;
41693;SDS011;27377;50.666;9.150;2023-06-22T09:44:09;7.47;;;6.68;;
41693;SDS011;27377;50.666;9.150;2023-06-22T09:46:35;9.18;;;6.63;;
41693;SDS011;27377;50.666;9.150;2023-06-22T09:49:00;8.60;;;6.60;;
41693;SDS011;27377;50.666;9.150;2023-06-22T09:51:26;9.60;;;6.70;;
41693;SDS011;27377;50.666;9.150;2023-06-22T09:53:52;9.97;;;6.83;;
41693;SDS011;27377;50.666;9.150;2023-06-22T09:56:20;8.73;;;6.63;;
41693;SDS011;27377;50.666;9.150;2023-06-22T09:58:46;9.40;;;6.57;;
41693;SDS011;27377;50.666;9.150;2023-06-22T10:01:12;8.80;;;6.47;;
41693;SDS011;27377;50.666;9.150;2023-06-22T10:03:40;8.55;;;6.70;;
41693;SDS011;27377;50.666;9.150;2023-06-22T10:06:06;9.50;;;6.67;;
41693;SDS011;27377;50.666;9.150;2023-06-22T10:08:33;8.70;;;6.13;;
41693;SDS011;27377;50.666;9.150;2023-06-22T10:10:59;8.40;;;6.10;;
41693;SDS011;27377;50.666;9.150;2023-06-22T10:13:25;8.80;;;6.53;;
41693;SDS011;27377;50.666;9.150;2023-06-22T10:15:50;8.97;;;6.83;;
41693;SDS011;27377;50.666;9.150;2023-06-22T10:18:20;7.45;;;6.40;;
41693;SDS011;27377;50.666;9.150;2023-06-22T10:20:47;10.38;;;6.70;;
41693;SDS011;27377;50.666;9.150;2023-06-22T10:23:16;9.00;;;6.77;;
41693;SDS011;27377;50.666;9.150;2023-06-22T10:25:42;10.33;;;6.30;;
41693;SDS011;27377;50.666;9.150;2023-06-22T10:28:07;8.77;;;6.40;;
41693;SDS011;27377;50.666;9.150;2023-06-22T10:30:33;8.87;;;6.40;;
41693;SDS011;27377;50.666;9.150;2023-06-22T10:32:58;9.00;;;6.40;;
41693;SDS011;27377;50.666;9.150;2023-06-22T10:35:24;9.37;;;6.97;;
41693;SDS011;27377;50.666;9.150;2023-06-22T10:37:49;8.77;;;6.40;;
41693;SDS011;27377;50.666;9.150;2023-06-22T10:40:16;8.70;;;7.00;;
41693;SDS011;27377;50.666;9.150;2023-06-22T10:42:43;9.82;;;6.90;;
41693;SDS011;27377;50.666;9.150;2023-06-22T10:45:09;9.00;;;6.50;;
41693;SDS011;27377;50.666;9.150;2023-06-22T10:47:35;9.38;;;6.70;;
41693;SDS011;27377;50.666;9.150;2023-06-22T10:50:01;9.53;;;6.70;;
41693;SDS011;27377;50.666;9.150;2023-06-22T10:52:27;9.50;;;6.82;;
41693;SDS011;27377;50.666;9.150;2023-06-22T10:54:53;8.30;;;6.63;;
41693;SDS011;27377;50.666;9.150;2023-06-22T10:57:18;9.05;;;6.90;;
41693;SDS011;27377;50.666;9.150;2023-06-22T10:59:44;9.23;;;6.60;;
41693;SDS011;27377;50.666;9.150;2023-06-22T11:02:10;8.90;;;6.67;;
41693;SDS011;27377;50.666;9.150;2023-06-22T11:04:35;8.30;;;6.33;;
41693;SDS011;27377;50.666;9.150;2023-06-22T11:07:02;9.00;;;7.17;;
41693;SDS011;27377;50.666;9.150;2023-06-22T11:09:27;11.82;;;6.88;;
41693;SDS011;27377;50.666;9.150;2023-06-22T11:11:53;8.07;;;6.60;;
41693;SDS011;27377;50.666;9.150;2023-06-22T11:14:19;8.67;;;6.87;;
41693;SDS011;27377;50.666;9.150;2023-06-22T11:16:44;9.32;;;6.78;;
41693;SDS011;27377;50.666;9.150;2023-06-22T11:19:11;9.48;;;6.88;;
41693;SDS011;27377;50.666;9.150;2023-06-22T11:21:37;9.80;;;6.57;;
41693;SDS011;27377;50.666;9.150;2023-06-22T11:24:03;9.30;;;6.40;;
41693;SDS011;27377;50.666;9.150;2023-06-22T11:26:28;10.20;;;6.53;;
41693;SDS011;27377;50.666;9.150;2023-06-22T11:28:54;9.48;;;6.70;;
41693;SDS011;27377;50.666;9.150;2023-06-22T11:31:20;8.73;;;6.53;;
41693;SDS011;27377;50.666;9.150;2023-06-22T11:33:46;8.20;;;6.50;;
41693;SDS011;27377;50.666;9.150;2023-06-22T11:36:12;8.37;;;6.63;;
41693;SDS011;27377;50.666;9.150;2023-06-22T11:38:39;8.10;;;6.68;;
41693;SDS011;27377;50.666;9.150;2023-06-22T11:41:08;8.60;;;6.50;;
41693;SDS011;27377;50.666;9.150;2023-06-22T11:43:34;8.40;;;6.00;;
41693;SDS011;27377;50.666;9.150;2023-06-22T11:46:04;8.80;;;6.68;;
41693;SDS011;27377;50.666;9.150;2023-06-22T11:48:30;7.53;;;5.85;;
41693;SDS011;27377;50.666;9.150;2023-06-22T11:50:56;7.90;;;6.10;;
41693;SDS011;27377;50.666;9.150;2023-06-22T11:53:23;8.13;;;6.03;;
41693;SDS011;27377;50.666;9.150;2023-06-22T11:55:50;8.20;;;5.93;;
41693;SDS011;27377;50.666;9.150;2023-06-22T11:58:15;8.67;;;5.67;;
41693;SDS011;27377;50.666;9.150;2023-06-22T12:00:41;7.53;;;5.40;;
41693;SDS011;27377;50.666;9.150;2023-06-22T12:03:07;9.63;;;5.50;;
41693;SDS011;27377;50.666;9.150;2023-06-22T12:05:33;7.03;;;5.50;;
41693;SDS011;27377;50.666;9.150;2023-06-22T12:07:58;8.63;;;5.33;;
41693;SDS011;27377;50.666;9.150;2023-06-22T12:10:25;8.77;;;5.30;;
41693;SDS011;27377;50.666;9.150;2023-06-22T12:12:51;6.82;;;5.18;;
41693;SDS011;27377;50.666;9.150;2023-06-22T12:15:16;8.10;;;5.67;;
41693;SDS011;27377;50.666;9.150;2023-06-22T12:17:42;7.77;;;5.30;;
41693;SDS011;27377;50.666;9.150;2023-06-22T12:20:08;8.00;;;5.28;;
41693;SDS011;27377;50.666;9.150;2023-06-22T12:22:34;7.32;;;5.45;;
41693;SDS011;27377;50.666;9.150;2023-06-22T12:25:00;8.80;;;5.50;;
41693;SDS011;27377;50.666;9.150;2023-06-22T12:27:26;8.07;;;5.15;;
41693;SDS011;27377;50.666;9.150;2023-06-22T12:29:55;8.27;;;5.50;;
41693;SDS011;27377;50.666;9.150;2023-06-22T12:32:21;9.97;;;5.50;;
41693;SDS011;27377;50.666;9.150;2023-06-22T12:34:47;6.85;;;4.90;;
41693;SDS011;27377;50.666;9.150;2023-06-22T12:37:13;7.35;;;5.05;;
41693;SDS011;27377;50.666;9.150;2023-06-22T12:39:40;9.65;;;5.22;;
41693;SDS011;27377;50.666;9.150;2023-06-22T12:42:06;10.73;;;5.63;;
41693;SDS011;27377;50.666;9.150;2023-06-22T12:44:37;7.63;;;5.28;;
41693;SDS011;27377;50.666;9.150;2023-06-22T12:47:03;8.07;;;5.22;;
41693;SDS011;27377;50.666;9.150;2023-06-22T12:49:29;7.80;;;5.40;;
41693;SDS011;27377;50.666;9.150;2023-06-22T12:51:55;9.73;;;5.75;;
41693;SDS011;27377;50.666;9.150;2023-06-22T12:54:20;8.65;;;5.40;;
41693;SDS011;27377;50.666;9.150;2023-06-22T12:56:46;9.15;;;5.57;;
41693;SDS011;27377;50.666;9.150;2023-06-22T12:59:12;9.00;;;5.07;;
41693;SDS011;27377;50.666;9.150;2023-06-22T13:01:37;8.33;;;5.57;;
41693;SDS011;27377;50.666;9.150;2023-06-22T13:04:03;7.77;;;5.33;;
41693;SDS011;27377;50.666;9.150;2023-06-22T13:06:28;8.90;;;5.22;;
41693;SDS011;27377;50.666;9.150;2023-06-22T13:08:54;8.63;;;5.38;;
41693;SDS011;27377;50.666;9.150;2023-06-22T13:11:20;9.95;;;5.50;;
41693;SDS011;27377;50.666;9.150;2023-06-22T13:13:45;9.65;;;5.55;;
41693;SDS011;27377;50.666;9.150;2023-06-22T13:16:11;10.98;;;5.38;;
41693;SDS011;27377;50.666;9.150;2023-06-22T13:18:37;7.60;;;4.88;;
41693;SDS011;27377;50.666;9.150;2023-06-22T13:21:03;11.65;;;5.20;;
41693;SDS011;27377;50.666;9.150;2023-06-22T13:23:29;8.20;;;5.03;;
41693;SDS011;27377;50.666;9.150;2023-06-22T13:25:55;11.40;;;5.38;;
41693;SDS011;27377;50.666;9.150;2023-06-22T13:28:21;11.83;;;5.17;;
41693;SDS011;27377;50.666;9.150;2023-06-22T13:30:47;10.60;;;5.30;;
41693;SDS011;27377;50.666;9.150;2023-06-22T13:33:13;10.27;;;4.90;;
41693;SDS011;27377;50.666;9.150;2023-06-22T13:35:39;10.70;;;5.35;;
41693;SDS011;27377;50.666;9.150;2023-06-22T13:38:04;8.27;;;5.40;;
41693;SDS011;27377;50.666;9.150;2023-06-22T13:40:30;11.15;;;5.30;;
41693;SDS011;27377;50.666;9.150;2023-06-22T13:42:56;10.63;;;5.40;;
41693;SDS011;27377;50.666;9.150;2023-06-22T13:45:22;9.57;;;5.43;;
41693;SDS011;27377;50.666;9.150;2023-06-22T13:47:47;11.32;;;5.22;;
41693;SDS011;27377;50.666;9.150;2023-06-22T13:50:13;11.50;;;5.35;;
41693;SDS011;27377;50.666;9.150;2023-06-22T13:52:39;11.70;;;5.53;;
41693;SDS011;27377;50.666;9.150;2023-06-22T13:55:05;10.57;;;5.43;;
41693;SDS011;27377;50.666;9.150;2023-06-22T13:57:32;12.57;;;5.72;;
41693;SDS011;27377;50.666;9.150;2023-06-22T13:59:58;10.40;;;5.57;;
41693;SDS011;27377;50.666;9.150;2023-06-22T14:02:23;11.43;;;6.00;;
41693;SDS011;27377;50.666;9.150;2023-06-22T14:04:50;12.07;;;5.75;;
41693;SDS011;27377;50.666;9.150;2023-06-22T14:07:16;11.63;;;5.90;;
41693;SDS011;27377;50.666;9.150;2023-06-22T14:09:41;12.23;;;6.07;;
41693;SDS011;27377;50.666;9.150;2023-06-22T14:12:07;10.13;;;5.90;;
41693;SDS011;27377;50.666;9.150;2023-06-22T14:14:33;12.27;;;6.10;;
41693;SDS011;27377;50.666;9.150;2023-06-22T14:16:59;11.80;;;6.23;;
41693;SDS011;27377;50.666;9.150;2023-06-22T14:19:25;10.80;;;6.32;;
41693;SDS011;27377;50.666;9.150;2023-06-22T14:21:50;11.63;;;6.38;;
41693;SDS011;27377;50.666;9.150;2023-06-22T14:24:17;10.37;;;5.93;;
41693;SDS011;27377;50.666;9.150;2023-06-22T14:26:42;12.25;;;5.90;;
41693;SDS011;27377;50.666;9.150;2023-06-22T14:29:08;10.07;;;6.40;;
41693;SDS011;27377;50.666;9.150;2023-06-22T14:31:33;11.60;;;6.30;;
41693;SDS011;27377;50.666;9.150;2023-06-22T14:33:59;11.23;;;6.20;;
41693;SDS011;27377;50.666;9.150;2023-06-22T14:36:25;13.13;;;7.00;;
41693;SDS011;27377;50.666;9.150;2023-06-22T14:38:51;12.50;;;6.30;;
41693;SDS011;27377;50.666;9.150;2023-06-22T14:41:16;10.87;;;6.33;;
41693;SDS011;27377;50.666;9.150;2023-06-22T14:43:45;12.18;;;6.50;;
41693;SDS011;27377;50.666;9.150;2023-06-22T14:46:11;12.77;;;6.75;;